Time;durP1;ratioP1;P1;durP2;ratioP2;P2;SDS_P1;SDS_P2;PMS_P1;PMS_P2;Temp;Humidity;BMP_temperature;BMP_pressure;BME280_temperature;BME280_humidity;BME280_pressure;Samples;Min_cycle;Max_cycle;Signal;HPM_P1;HPM_P2
2022/01/13 00:01:45;;;;;;;6.25;4.72;;;;;;;19.13;45.12;98746.56;12609989;23;20018;-55
2022/01/13 00:07:05;;;;;;;5.72;4.30;;;;;;;19.12;45.10;98750.38;12611954;23;20014;-52
2022/01/13 00:12:30;;;;;;;6.18;4.30;;;;;;;19.11;44.94;98748.72;12612931;23;20498;-55
2022/01/13 00:17:59;;;;;;;5.10;3.90;;;;;;;19.08;44.94;98760.09;12612596;23;20026;-55
2022/01/13 00:29:03;;;;;;;5.18;3.83;;;;;;;19.06;44.88;98756.88;12631158;23;20025;-55
2022/01/13 00:34:22;;;;;;;6.18;3.97;;;;;;;19.04;44.77;98762.53;12612164;23;20022;-55
2022/01/13 00:39:42;;;;;;;5.75;4.35;;;;;;;19.03;44.83;98755.50;12611662;23;20015;-55
2022/01/13 00:45:03;;;;;;;5.35;4.10;;;;;;;19.02;44.63;98751.19;12631659;23;20018;-54
2022/01/13 00:50:22;;;;;;;4.63;3.50;;;;;;;19.01;44.65;98756.88;12612183;23;20015;-56
2022/01/13 00:55:57;;;;;;;4.75;3.63;;;;;;;18.99;44.61;98749.03;12611924;23;20459;-53
2022/01/13 01:01:17;;;;;;;4.38;3.30;;;;;;;18.97;44.66;98743.09;12612109;23;20026;-52
2022/01/13 01:06:36;;;;;;;4.93;3.95;;;;;;;18.96;44.21;98752.28;12611694;23;20019;-55
2022/01/13 01:11:56;;;;;;;4.57;3.75;;;;;;;18.94;44.34;98754.47;12631017;23;20019;-54
2022/01/13 01:17:16;;;;;;;4.70;3.72;;;;;;;18.93;44.22;98752.81;12611490;23;20046;-56
2022/01/13 01:22:43;;;;;;;3.83;3.33;;;;;;;18.91;44.12;98772.00;12631430;23;20019;-55
2022/01/13 01:28:09;;;;;;;3.80;3.20;;;;;;;18.91;44.25;98763.91;12611385;23;20026;-55
2022/01/13 01:33:29;;;;;;;5.07;3.50;;;;;;;18.89;44.11;98778.75;12611498;23;20022;-55
2022/01/13 01:38:52;;;;;;;4.55;3.53;;;;;;;18.88;43.94;98769.06;12611429;23;20087;-52
2022/01/13 01:44:14;;;;;;;4.03;3.58;;;;;;;18.86;44.17;98765.81;12611179;23;20316;-56
2022/01/13 01:49:39;;;;;;;3.53;2.88;;;;;;;18.85;44.05;98761.47;12611035;23;20455;-55
2022/01/13 01:54:58;;;;;;;3.50;3.10;;;;;;;18.83;44.09;98766.34;12610984;23;20343;-55
2022/01/13 02:00:20;;;;;;;3.80;3.28;;;;;;;18.82;43.91;98762.00;12630350;23;20019;-55
2022/01/13 02:05:39;;;;;;;4.22;3.20;;;;;;;18.80;44.18;98762.31;12610628;23;20413;-52
2022/01/13 02:10:59;;;;;;;4.00;3.30;;;;;;;18.79;44.04;98757.94;12610545;23;20029;-52
2022/01/13 02:21:54;;;;;;;3.60;2.70;;;;;;;18.76;43.85;98748.50;12610595;23;20354;-52
2022/01/13 02:27:14;;;;;;;3.53;3.20;;;;;;;18.75;43.80;98749.56;12609906;23;20019;-54
2022/01/13 02:32:33;;;;;;;4.30;3.03;;;;;;;18.73;43.69;98759.03;12609978;23;20354;-52
2022/01/13 02:37:52;;;;;;;4.30;3.17;;;;;;;18.73;43.77;98756.34;12609960;23;20068;-53
2022/01/13 02:43:12;;;;;;;5.47;3.33;;;;;;;18.71;43.56;98729.59;12610119;23;20023;-56
2022/01/13 02:48:32;;;;;;;3.65;2.80;;;;;;;18.69;43.53;98712.06;12629412;23;20054;-54
2022/01/13 02:53:51;;;;;;;4.13;2.70;;;;;;;18.67;43.52;98701.53;12609943;23;20025;-54
2022/01/13 02:59:10;;;;;;;;;;;;;;;18.66;43.50;98694.53;12629449;23;20014;-55
2022/01/13 03:04:30;;;;;;;3.28;2.70;;;;;;;18.66;43.48;98696.41;12630067;23;19920;-55
2022/01/13 03:09:50;;;;;;;2.88;2.60;;;;;;;18.64;43.37;98680.50;12629349;23;20026;-53
2022/01/13 03:15:10;;;;;;;3.00;2.67;;;;;;;18.62;43.30;98682.66;12609626;23;20505;-54
2022/01/13 03:20:29;;;;;;;3.25;2.63;;;;;;;18.60;43.20;98690.19;12629044;23;20019;-54
2022/01/13 03:25:49;;;;;;;3.20;2.90;;;;;;;18.58;43.20;98682.38;12628921;23;20370;-52
2022/01/13 03:31:08;;;;;;;4.15;2.70;;;;;;;18.57;43.22;98704.25;12608824;23;20024;-55
2022/01/13 03:36:28;;;;;;;3.30;2.80;;;;;;;18.56;43.26;98705.31;12630150;23;20018;-53
2022/01/13 03:41:47;;;;;;;3.10;2.80;;;;;;;18.54;43.10;98708.31;12613540;23;20018;-55
2022/01/13 03:47:09;;;;;;;3.53;2.63;;;;;;;18.53;43.18;98722.88;12613060;23;20018;-55
2022/01/13 03:52:29;;;;;;;3.10;2.75;;;;;;;18.52;43.18;98732.06;12632642;23;20338;-52
2022/01/13 03:58:26;;;;;;;2.85;2.65;;;;;;;18.51;42.99;98713.44;12613307;23;20029;-54
2022/01/13 04:03:46;;;;;;;2.92;2.40;;;;;;;18.50;42.98;98725.28;12632674;23;20014;-55
2022/01/13 04:09:09;;;;;;;3.03;2.45;;;;;;;18.47;43.00;98718.56;12613223;23;20447;-52
2022/01/13 04:14:42;;;;;;;2.72;2.45;;;;;;;18.45;42.92;98726.09;12613298;23;20019;-54
2022/01/13 04:20:02;;;;;;;3.08;2.63;;;;;;;18.44;43.08;98737.97;12615144;23;20026;-55
2022/01/13 04:25:23;;;;;;;3.80;2.67;;;;;;;18.43;42.87;98743.66;12611983;23;20033;-53
2022/01/13 04:30:47;;;;;;;2.95;2.65;;;;;;;18.42;42.87;98744.72;12612938;23;20447;-55
2022/01/13 04:36:08;;;;;;;3.08;2.63;;;;;;;18.40;42.94;98742.28;12611937;23;20019;-54
2022/01/13 04:41:32;;;;;;;2.90;2.60;;;;;;;18.38;42.80;98742.59;12632124;23;20069;-55
2022/01/13 04:46:54;;;;;;;2.60;2.40;;;;;;;18.38;42.84;98750.69;12631842;23;20022;-52
2022/01/13 04:52:13;;;;;;;3.65;2.55;;;;;;;18.36;42.93;98743.91;12611394;23;20028;-54
2022/01/13 04:57:32;;;;;;;2.40;2.17;;;;;;;18.36;42.68;98743.91;12611807;23;20025;-54
2022/01/13 05:02:52;;;;;;;2.65;2.45;;;;;;;18.33;42.72;98737.16;12631362;23;20020;-54
2022/01/13 05:08:11;;;;;;;2.72;2.50;;;;;;;18.33;42.89;98742.56;12611618;23;20044;-53
2022/01/13 05:13:31;;;;;;;2.45;2.25;;;;;;;18.32;43.03;98737.44;12610264;23;20022;-52
2022/01/13 05:18:58;;;;;;;2.90;2.60;;;;;;;18.31;43.39;98731.22;12609859;23;20019;-53
2022/01/13 05:24:18;;;;;;;2.53;2.33;;;;;;;18.31;43.80;98725.84;12611224;23;20018;-54
2022/01/13 05:29:37;;;;;;;2.47;2.28;;;;;;;18.32;44.01;98724.75;12610817;23;20608;-56
2022/01/13 05:34:56;;;;;;;2.97;2.58;;;;;;;18.32;43.69;98722.03;12630290;23;20018;-54
2022/01/13 05:40:16;;;;;;;2.72;2.42;;;;;;;18.33;44.17;98720.97;12611037;23;20018;-53
2022/01/13 05:45:35;;;;;;;2.92;2.38;;;;;;;18.35;44.19;98716.13;12611126;23;20466;-54
2022/01/13 05:50:55;;;;;;;3.67;2.47;;;;;;;18.37;44.13;98730.16;12630207;23;20029;-52
2022/01/13 05:56:15;;;;;;;2.30;2.10;;;;;;;18.38;44.36;98731.78;12607092;23;20442;-53
2022/01/13 06:01:35;;;;;;;4.25;2.35;;;;;;;18.41;44.59;98716.94;12612042;23;20022;-53
2022/01/13 06:06:54;;;;;;;3.67;2.33;;;;;;;18.43;44.76;98713.97;12629460;23;20026;-56
2022/01/13 06:12:15;;;;;;;3.67;2.30;;;;;;;18.46;44.85;98710.72;12629328;23;20018;-56
2022/01/13 06:17:36;;;;;;;3.13;2.38;;;;;;;18.49;44.94;98711.00;12608871;23;20356;-56
2022/01/13 06:22:58;;;;;;;5.75;3.10;;;;;;;18.52;44.76;98707.75;12629278;23;20084;-54
2022/01/13 06:28:17;;;;;;;13.95;3.65;;;;;;;18.56;44.70;98722.34;12627785;23;20521;-55
2022/01/13 06:33:36;;;;;;;15.05;4.40;;;;;;;18.60;44.84;98727.19;12606332;23;20018;-55
2022/01/13 06:38:56;;;;;;;9.05;3.45;;;;;;;18.64;44.92;98734.47;12606014;23;20025;-55
2022/01/13 06:44:16;;;;;;;7.05;3.33;;;;;;;18.68;45.05;98727.47;12626495;23;20019;-54
2022/01/13 06:49:35;;;;;;;9.43;3.15;;;;;;;18.71;44.87;98735.00;12625369;23;20077;-54
2022/01/13 06:54:55;;;;;;;7.88;3.55;;;;;;;18.75;45.05;98738.78;12623963;23;20041;-54
2022/01/13 07:00:15;;;;;;;7.75;3.50;;;;;;;18.80;45.08;98737.16;12604945;23;20015;-52
2022/01/13 07:05:35;;;;;;;10.77;3.53;;;;;;;18.84;44.92;98743.69;12610012;23;20047;-53
2022/01/13 07:10:54;;;;;;;7.80;3.13;;;;;;;18.86;44.86;98744.22;12609653;23;20022;-53
2022/01/13 07:16:13;;;;;;;6.13;3.38;;;;;;;18.86;44.91;98750.41;12609730;23;20044;-54
2022/01/13 07:21:34;;;;;;;7.85;3.35;;;;;;;18.86;44.67;98746.91;12670199;23;20454;-55
2022/01/13 07:26:54;;;;;;;5.55;2.88;;;;;;;18.86;44.84;98747.72;12669496;23;20037;-52
2022/01/13 07:32:13;;;;;;;8.80;3.15;;;;;;;18.89;44.71;98743.66;12689616;23;20018;-55
2022/01/13 07:37:33;;;;;;;5.55;3.00;;;;;;;18.90;44.45;98756.09;12663940;23;20113;-56
2022/01/13 07:42:53;;;;;;;6.68;3.30;;;;;;;18.92;44.57;98762.03;12668840;23;20022;-54
2022/01/13 07:48:12;;;;;;;5.70;2.83;;;;;;;18.93;44.52;98769.03;12670048;23;20014;-56
2022/01/13 07:53:31;;;;;;;5.25;3.00;;;;;;;18.93;44.42;98769.03;12669870;23;20018;-55
2022/01/13 07:58:51;;;;;;;7.93;2.97;;;;;;;18.95;44.46;98761.47;12669333;23;20447;-55
2022/01/13 08:04:10;;;;;;;5.43;2.90;;;;;;;18.97;44.31;98770.09;12669015;23;20018;-55
2022/01/13 08:09:29;;;;;;;6.47;2.80;;;;;;;18.96;44.29;98772.00;12669874;23;20631;-53
2022/01/13 08:14:50;;;;;;;5.50;3.10;;;;;;;18.97;44.29;98783.59;12669404;23;20026;-53
2022/01/13 08:20:10;;;;;;;4.72;2.72;;;;;;;18.98;44.36;98776.34;12623714;23;20094;-54
2022/01/13 08:25:30;;;;;;;5.32;2.92;;;;;;;18.96;44.53;98774.69;12628569;23;20077;-56
2022/01/13 08:30:50;;;;;;;6.78;3.60;;;;;;;18.96;44.43;98784.72;12612591;23;20051;-54
2022/01/13 08:36:09;;;;;;;5.03;2.95;;;;;;;18.96;44.83;98790.91;12631971;23;20018;-55
2022/01/13 08:41:28;;;;;;;4.75;2.90;;;;;;;18.97;44.79;98797.13;12631651;23;20018;-52
2022/01/13 08:46:47;;;;;;;6.43;2.90;;;;;;;18.98;44.93;98792.53;12612059;23;20057;-54
2022/01/13 08:52:07;;;;;;;6.35;3.00;;;;;;;18.98;45.05;98781.75;12611332;23;20018;-53
2022/01/13 08:57:26;;;;;;;7.28;2.95;;;;;;;18.98;45.14;98769.03;12611963;23;20042;-56
2022/01/13 09:02:46;;;;;;;5.13;2.60;;;;;;;18.97;44.92;98767.41;12630090;23;20072;-55
2022/01/13 09:08:08;;;;;;;4.78;3.03;;;;;;;18.98;45.03;98769.03;12630894;23;20022;-56
2022/01/13 09:13:29;;;;;;;4.57;2.80;;;;;;;18.97;44.99;98770.09;12608171;23;20018;-53
2022/01/13 09:24:17;;;;;;;4.97;2.88;;;;;;;18.98;45.17;98747.44;12610380;23;20451;-53
2022/01/13 09:29:37;;;;;;;5.18;2.80;;;;;;;18.97;45.09;98743.09;12629084;23;20022;-53
2022/01/13 09:34:57;;;;;;;5.88;2.60;;;;;;;18.98;45.15;98752.03;12609723;23;20019;-55
2022/01/13 09:40:16;;;;;;;5.22;2.60;;;;;;;18.97;45.06;98762.00;12609450;23;20495;-53
2022/01/13 09:45:36;;;;;;;5.28;2.75;;;;;;;18.97;45.10;98756.59;12629459;23;20102;-54
2022/01/13 09:50:55;;;;;;;4.72;2.70;;;;;;;18.97;45.04;98759.31;12585422;23;20090;-54
2022/01/13 09:56:15;;;;;;;4.60;2.58;;;;;;;18.96;44.96;98763.91;12626439;23;20025;-55
2022/01/13 10:01:34;;;;;;;3.13;2.60;;;;;;;18.96;44.56;98771.19;12628079;23;20034;-56
2022/01/13 10:06:54;;;;;;;4.43;2.60;;;;;;;18.94;44.56;98763.38;12610960;23;20014;-56
2022/01/13 10:12:23;;;;;;;4.32;2.40;;;;;;;18.93;44.32;98753.66;12610690;23;20022;-56
2022/01/13 10:17:47;;;;;;;2.70;2.30;;;;;;;18.93;44.40;98745.56;12630038;23;20113;-54
2022/01/13 10:23:11;;;;;;;4.05;2.50;;;;;;;18.92;44.61;98751.22;12588239;23;20023;-52
2022/01/13 10:28:31;;;;;;;3.90;2.67;;;;;;;18.93;44.40;98739.31;12610169;23;20015;-53
2022/01/13 10:33:50;;;;;;;4.28;2.13;;;;;;;18.91;44.39;98730.69;12609608;23;20073;-54
2022/01/13 10:39:10;;;;;;;3.42;2.50;;;;;;;18.91;44.28;98712.59;12610339;23;20022;-55
2022/01/13 10:44:29;;;;;;;3.00;2.33;;;;;;;18.89;44.35;98700.44;12628211;23;20343;-55
2022/01/13 10:49:50;;;;;;;3.33;2.35;;;;;;;18.88;44.16;98690.75;12604311;23;20015;-55
2022/01/13 10:55:12;;;;;;;2.47;2.08;;;;;;;18.85;44.32;98675.88;12609700;23;20018;-55
2022/01/13 11:00:33;;;;;;;3.15;2.17;;;;;;;18.84;44.19;98660.75;12629044;23;20065;-54
2022/01/13 11:05:53;;;;;;;2.50;2.30;;;;;;;18.83;44.14;98651.03;12609969;23;20506;-53
2022/01/13 11:11:18;;;;;;;3.03;2.10;;;;;;;18.83;44.27;98652.94;12608585;23;20025;-53
2022/01/13 11:16:38;;;;;;;3.00;2.40;;;;;;;18.81;44.06;98668.59;12608801;23;20018;-54
2022/01/13 11:21:58;;;;;;;3.22;2.03;;;;;;;18.80;44.50;98666.97;12629066;23;20101;-53
2022/01/13 11:27:19;;;;;;;3.08;2.30;;;;;;;18.79;44.56;98660.75;12609232;23;20391;-54
2022/01/13 11:32:46;;;;;;;2.78;2.15;;;;;;;18.78;44.21;98662.63;12609492;23;20019;-54
2022/01/13 11:38:06;;;;;;;2.58;2.03;;;;;;;18.77;44.26;98654.81;12608538;23;20019;-55
2022/01/13 11:43:30;;;;;;;3.65;2.25;;;;;;;18.77;44.15;98646.69;12629125;23;20014;-54
2022/01/13 11:49:04;;;;;;;2.63;1.88;;;;;;;18.75;44.20;98646.97;12608390;23;20018;-53
2022/01/13 11:54:35;;;;;;;3.97;2.08;;;;;;;18.75;44.23;98654.28;12608335;23;20026;-53
2022/01/13 11:59:58;;;;;;;2.75;1.83;;;;;;;18.73;44.32;98651.03;12629447;23;20621;-55
2022/01/13 12:05:19;;;;;;;2.55;1.88;;;;;;;18.73;44.38;98656.44;12611355;23;20034;-53
2022/01/13 12:10:40;;;;;;;3.15;2.22;;;;;;;18.71;44.33;98632.41;12612315;23;20015;-54
2022/01/13 12:16:00;;;;;;;1.95;1.73;;;;;;;18.70;44.43;98613.78;12612948;23;20022;-53
2022/01/13 12:21:44;;;;;;;2.45;1.73;;;;;;;18.69;44.27;98604.88;12631836;23;20090;-53
2022/01/13 12:27:04;;;;;;;3.58;2.00;;;;;;;18.69;44.20;98607.56;12612057;23;20025;-56
2022/01/13 12:32:37;;;;;;;3.33;1.80;;;;;;;18.68;44.50;98597.88;12631821;23;20023;-53
2022/01/13 12:38:02;;;;;;;1.88;1.60;;;;;;;18.68;44.32;98592.47;12611882;23;20018;-53
2022/01/13 12:43:50;;;;;;;2.53;1.73;;;;;;;18.67;44.28;98588.13;12612083;23;20018;-54
2022/01/13 12:49:13;;;;;;;3.28;1.75;;;;;;;18.67;44.19;98598.13;12631651;23;20469;-55
2022/01/13 12:54:33;;;;;;;2.30;1.80;;;;;;;18.66;44.21;98596.50;12631503;23;20018;-55
2022/01/13 12:59:57;;;;;;;2.25;1.83;;;;;;;18.64;44.32;98596.81;12611992;23;20334;-55
2022/01/13 13:05:28;;;;;;;2.20;1.70;;;;;;;18.64;44.18;98604.06;12611672;23;20317;-53
2022/01/13 13:10:56;;;;;;;2.92;1.88;;;;;;;18.63;44.27;98619.47;12629902;23;20455;-55
2022/01/13 13:16:16;;;;;;;2.08;1.70;;;;;;;18.61;44.33;98599.25;12630894;23;20069;-53
2022/01/13 13:21:36;;;;;;;2.50;1.85;;;;;;;18.60;44.31;98601.09;12610597;23;20018;-55
2022/01/13 13:26:55;;;;;;;2.42;1.75;;;;;;;18.59;44.42;98599.50;12610748;23;20026;-55
2022/01/13 13:32:16;;;;;;;3.65;1.80;;;;;;;18.59;44.17;98615.72;12609256;23;20074;-54
2022/01/13 13:37:46;;;;;;;2.15;1.80;;;;;;;18.55;43.94;98601.13;12610093;23;20467;-53
2022/01/13 13:43:08;;;;;;;2.10;1.90;;;;;;;18.53;43.97;98598.72;12630385;23;20019;-55
2022/01/13 13:48:28;;;;;;;2.15;1.70;;;;;;;18.53;43.93;98597.91;12610113;23;20015;-52
2022/01/13 13:54:14;;;;;;;2.22;1.63;;;;;;;18.52;44.11;98582.78;12630187;23;20018;-53
2022/01/13 13:59:44;;;;;;;2.47;1.90;;;;;;;18.52;43.88;98569.28;12609142;23;20339;-54
2022/01/13 14:05:09;;;;;;;2.17;1.80;;;;;;;18.51;43.90;98573.09;12609147;23;20023;-52
2022/01/13 14:10:29;;;;;;;2.20;1.60;;;;;;;18.50;44.11;98563.34;12609944;23;20014;-53
2022/01/13 14:15:49;;;;;;;1.77;1.60;;;;;;;18.49;44.01;98561.75;12609067;23;20333;-52
2022/01/13 14:21:08;;;;;;;2.63;1.70;;;;;;;18.48;43.96;98557.44;12628917;23;20018;-54
2022/01/13 14:26:34;;;;;;;1.77;1.50;;;;;;;18.47;44.02;98555.81;12629766;23;20019;-54
2022/01/13 14:31:53;;;;;;;2.15;1.70;;;;;;;18.45;43.95;98550.69;12609603;23;20025;-55
2022/01/13 14:37:13;;;;;;;1.80;1.50;;;;;;;18.45;43.94;98564.19;12609506;23;20018;-54
2022/01/13 14:42:32;;;;;;;1.40;1.30;;;;;;;18.45;43.90;98558.00;12608721;23;20502;-52
2022/01/13 14:47:52;;;;;;;2.00;1.80;;;;;;;18.43;43.88;98555.56;12607413;23;20089;-52
2022/01/13 14:53:12;;;;;;;1.50;1.40;;;;;;;18.42;43.88;98556.63;12608905;23;20022;-52
2022/01/13 14:58:33;;;;;;;1.70;1.60;;;;;;;18.41;43.79;98565.03;12628948;23;20018;-54
2022/01/13 15:03:53;;;;;;;1.48;1.30;;;;;;;18.39;43.88;98557.19;12606769;23;20018;-56
2022/01/13 15:09:13;;;;;;;2.05;1.67;;;;;;;18.38;43.82;98552.84;12607276;23;20019;-54
2022/01/13 15:14:32;;;;;;;1.90;1.60;;;;;;;18.37;43.81;98546.66;12608168;23;20022;-55
2022/01/13 15:19:52;;;;;;;1.50;1.40;;;;;;;18.36;43.85;98547.72;12608536;23;20409;-52
2022/01/13 15:25:11;;;;;;;1.98;1.50;;;;;;;18.35;43.87;98548.81;12627888;23;20093;-55
2022/01/13 15:30:32;;;;;;;2.03;1.50;;;;;;;18.36;43.73;98545.03;12606992;23;20019;-52
2022/01/13 15:35:52;;;;;;;1.52;1.40;;;;;;;18.36;43.69;98545.03;12627356;23;20018;-53
2022/01/13 15:41:11;;;;;;;2.03;1.42;;;;;;;18.36;43.80;98542.34;12627232;23;20022;-54
2022/01/13 15:46:30;;;;;;;1.92;1.52;;;;;;;18.38;43.62;98537.50;12608981;23;20018;-53
2022/01/13 15:51:50;;;;;;;1.52;1.33;;;;;;;18.40;43.69;98545.31;12608545;23;20018;-52
2022/01/13 15:57:10;;;;;;;1.45;1.35;;;;;;;18.42;43.71;98548.53;12606308;23;20074;-52
2022/01/13 16:02:30;;;;;;;1.67;1.40;;;;;;;18.44;43.76;98545.56;12628285;23;20015;-53
2022/01/13 16:07:49;;;;;;;1.73;1.42;;;;;;;18.45;43.51;98541.78;12608261;23;20037;-55
2022/01/13 16:13:08;;;;;;;2.95;1.40;;;;;;;18.48;43.65;98538.53;12587476;23;20343;-53
2022/01/13 16:18:28;;;;;;;1.50;1.40;;;;;;;18.52;43.48;98536.91;12628012;23;20025;-52
2022/01/13 16:23:47;;;;;;;1.67;1.45;;;;;;;18.53;43.67;98541.22;12627960;23;20021;-54
2022/01/13 16:29:29;;;;;;;1.70;1.60;;;;;;;18.57;43.40;98539.59;12608787;23;20014;-55
2022/01/13 16:34:49;;;;;;;1.90;1.45;;;;;;;18.60;43.49;98530.94;12628185;23;20473;-55
2022/01/13 16:40:11;;;;;;;2.38;1.50;;;;;;;18.65;43.44;98527.41;12606199;23;20019;-52
2022/01/13 16:45:36;;;;;;;1.52;1.33;;;;;;;18.67;43.49;98522.56;12610059;23;20042;-54
2022/01/13 16:50:58;;;;;;;1.42;1.33;;;;;;;18.71;43.71;98537.13;12611808;23;20041;-55
2022/01/13 16:56:17;;;;;;;1.30;1.20;;;;;;;18.74;43.50;98531.19;12611749;23;20029;-55
2022/01/13 17:01:37;;;;;;;2.00;1.48;;;;;;;18.76;43.49;98537.91;12630597;23;20026;-54
2022/01/13 17:06:57;;;;;;;1.65;1.50;;;;;;;18.80;43.45;98524.69;12610779;23;20018;-53
2022/01/13 17:12:17;;;;;;;1.50;1.40;;;;;;;18.86;43.38;98536.28;12630577;23;20018;-55
2022/01/13 17:17:39;;;;;;;1.40;1.30;;;;;;;18.89;43.29;98531.09;12610955;23;20086;-52
2022/01/13 17:23:00;;;;;;;1.90;1.23;;;;;;;18.94;43.03;98527.59;12611022;23;20046;-55
2022/01/13 17:28:19;;;;;;;2.67;2.40;;;;;;;18.96;41.01;98526.22;12606916;23;20021;-52
2022/01/13 17:33:39;;;;;;;3.88;2.30;;;;;;;19.00;42.07;98522.97;12610372;23;20024;-56
2022/01/13 17:39:00;;;;;;;2.05;1.85;;;;;;;19.05;42.25;98528.34;12610181;23;20045;-55
2022/01/13 17:44:19;;;;;;;3.83;1.60;;;;;;;19.08;42.48;98520.50;12610231;23;20032;-52
2022/01/13 17:49:39;;;;;;;10.82;3.95;;;;;;;19.12;44.00;98526.94;12630408;23;20026;-53
2022/01/13 17:54:58;;;;;;;3.95;2.17;;;;;;;19.19;43.92;98534.75;12610247;23;20022;-49
2022/01/13 18:00:18;;;;;;;2.78;2.00;;;;;;;19.24;44.17;98525.81;12629255;23;20078;-51
2022/01/13 18:05:38;;;;;;;3.15;2.40;;;;;;;19.28;44.80;98511.44;12609125;23;20022;-55
2022/01/13 18:10:57;;;;;;;3.10;2.50;;;;;;;19.33;45.41;98511.41;12595388;23;20049;-60
2022/01/13 18:16:18;;;;;;;2.80;2.03;;;;;;;19.40;45.26;98513.00;12607194;23;20092;-64
2022/01/13 18:21:37;;;;;;;7.70;2.08;;;;;;;19.43;44.72;98502.44;12607250;23;20026;-61
2022/01/13 18:26:56;;;;;;;4.05;2.00;;;;;;;19.47;45.10;98516.19;12604681;23;20021;-62
2022/01/13 18:32:16;;;;;;;2.92;1.98;;;;;;;19.51;44.64;98498.31;12608178;23;20022;-52
2022/01/13 18:37:36;;;;;;;3.63;1.95;;;;;;;19.55;44.60;98496.66;12607968;23;20018;-61
2022/01/13 18:42:58;;;;;;;1.67;1.58;;;;;;;19.59;44.53;98496.91;12626947;23;20030;-52
2022/01/13 18:48:19;;;;;;;3.30;1.80;;;;;;;19.64;44.47;98486.03;12628511;23;20022;-59
2022/01/13 18:53:38;;;;;;;3.30;1.58;;;;;;;19.68;44.36;98489.78;12607730;23;20023;-53
2022/01/13 18:58:58;;;;;;;1.77;1.65;;;;;;;19.71;44.23;98481.13;12627438;23;20533;-51
2022/01/13 19:04:19;;;;;;;2.13;1.60;;;;;;;19.75;44.34;98488.41;12627141;23;20014;-51
2022/01/13 19:09:39;;;;;;;2.67;1.77;;;;;;;19.81;44.25;98486.44;12606159;23;20018;-50
2022/01/13 19:14:58;;;;;;;2.88;1.70;;;;;;;19.85;44.08;98484.78;12625813;23;20025;-50
2022/01/13 19:20:21;;;;;;;3.58;1.60;;;;;;;19.90;43.79;98481.25;12626315;23;20030;-51
2022/01/13 19:25:41;;;;;;;1.70;1.60;;;;;;;19.94;43.83;98480.38;12608316;23;20018;-55
2022/01/13 19:31:00;;;;;;;2.13;1.70;;;;;;;19.99;43.74;98481.41;12608173;23;20025;-55
2022/01/13 19:36:20;;;;;;;3.03;1.60;;;;;;;20.02;43.75;98472.75;12585850;23;20046;-52
2022/01/13 19:41:39;;;;;;;2.60;1.90;;;;;;;20.08;43.43;98482.41;12627480;23;20018;-52
2022/01/13 19:46:59;;;;;;;2.63;1.92;;;;;;;20.12;43.67;98472.63;12628647;23;20018;-54
2022/01/13 19:52:19;;;;;;;6.32;1.90;;;;;;;20.16;43.72;98465.56;12608245;23;20469;-53
2022/01/13 19:57:39;;;;;;;3.38;1.80;;;;;;;20.20;43.84;98465.78;12607179;23;20085;-54
2022/01/13 20:02:59;;;;;;;3.42;1.83;;;;;;;20.23;43.96;98452.50;12627955;23;20018;-50
2022/01/13 20:08:19;;;;;;;6.25;2.20;;;;;;;20.28;44.42;98457.81;12627937;23;20451;-53
2022/01/13 20:13:38;;;;;;;5.22;2.08;;;;;;;20.30;44.50;98461.06;12607190;23;20022;-52
2022/01/13 20:18:57;;;;;;;4.07;1.70;;;;;;;20.33;44.92;98470.50;12607672;23;20049;-52
2022/01/13 20:24:17;;;;;;;4.15;1.75;;;;;;;20.35;44.68;98469.13;12612042;23;20070;-53
2022/01/13 20:29:36;;;;;;;4.82;1.70;;;;;;;20.38;44.87;98456.91;12611207;23;20014;-51
2022/01/13 20:34:56;;;;;;;4.38;2.00;;;;;;;20.38;44.86;98470.44;12631699;23;20025;-51
2022/01/13 20:40:15;;;;;;;5.65;2.45;;;;;;;20.40;44.80;98464.75;12611650;23;20019;-51
2022/01/13 20:45:36;;;;;;;4.93;2.05;;;;;;;20.41;44.63;98463.66;12631704;23;20018;-50
2022/01/13 20:50:55;;;;;;;4.55;2.25;;;;;;;20.41;44.82;98442.78;12612427;23;20038;-55
2022/01/13 20:56:16;;;;;;;6.30;2.67;;;;;;;20.43;44.65;98442.50;12587485;23;20462;-51
2022/01/13 21:01:36;;;;;;;7.75;2.80;;;;;;;20.43;44.67;98442.50;12631392;23;20025;-53
2022/01/13 21:06:55;;;;;;;7.15;2.67;;;;;;;20.45;44.59;98440.31;12609594;23;20348;-50
2022/01/13 21:12:15;;;;;;;6.68;2.55;;;;;;;20.44;44.65;98441.41;12607529;23;20331;-51
2022/01/13 21:17:34;;;;;;;7.13;2.50;;;;;;;20.44;44.60;98433.28;12628033;23;20124;-51
2022/01/13 21:22:55;;;;;;;8.60;3.05;;;;;;;20.46;44.56;98428.38;12607266;23;20018;-53
2022/01/13 21:28:14;;;;;;;5.43;2.42;;;;;;;20.49;44.58;98435.94;12625126;23;20029;-51
2022/01/13 21:33:34;;;;;;;6.30;2.47;;;;;;;20.49;44.22;98417.00;12605320;23;20102;-54
2022/01/13 21:38:54;;;;;;;5.57;2.90;;;;;;;20.47;44.37;98406.44;12608149;23;20028;-52
2022/01/13 21:44:14;;;;;;;6.60;3.00;;;;;;;20.49;44.49;98411.56;12608691;23;20022;-52
2022/01/13 21:49:35;;;;;;;6.90;2.80;;;;;;;20.49;44.62;98398.84;12608813;23;20045;-51
2022/01/13 21:54:55;;;;;;;6.53;2.85;;;;;;;20.47;44.67;98392.91;12607543;23;20023;-51
2022/01/13 22:00:18;;;;;;;7.72;2.78;;;;;;;20.48;44.79;98401.81;12607997;23;20022;-53
2022/01/13 22:05:39;;;;;;;5.03;2.53;;;;;;;20.45;44.71;98394.31;12628188;23;20021;-53
2022/01/13 22:11:06;;;;;;;4.95;2.20;;;;;;;20.47;44.64;98394.81;12607920;23;20029;-52
2022/01/13 22:16:25;;;;;;;4.78;2.35;;;;;;;20.44;44.67;98393.47;12610418;23;20020;-51
2022/01/13 22:21:45;;;;;;;5.40;2.42;;;;;;;20.42;44.71;98387.56;12610559;23;20032;-51
2022/01/13 22:27:07;;;;;;;4.30;2.17;;;;;;;20.43;44.72;98382.97;12629973;23;20026;-54
2022/01/13 22:32:27;;;;;;;5.63;2.47;;;;;;;20.40;44.75;98376.22;12610445;23;20019;-54
2022/01/13 22:37:46;;;;;;;4.40;2.45;;;;;;;20.40;44.52;98370.78;12609403;23;20089;-51
2022/01/13 22:43:07;;;;;;;4.30;2.13;;;;;;;20.39;44.50;98366.50;12609753;23;20018;-51
2022/01/13 22:48:26;;;;;;;6.00;2.20;;;;;;;20.39;44.51;98365.69;12629819;23;20093;-52
2022/01/13 22:53:46;;;;;;;3.20;1.85;;;;;;;20.37;44.40;98352.44;12610300;23;20440;-53
2022/01/13 22:59:06;;;;;;;4.53;2.03;;;;;;;20.37;44.63;98352.44;12609983;23;20454;-53
2022/01/13 23:04:25;;;;;;;3.58;2.08;;;;;;;20.35;44.49;98338.41;12608890;23;20029;-54
2022/01/13 23:09:45;;;;;;;4.28;2.20;;;;;;;20.33;44.36;98330.56;12609837;23;20022;-51
2022/01/13 23:26:03;;;;;;;5.40;2.35;;;;;;;20.29;44.35;98320.63;12608842;23;20094;-53
2022/01/13 23:31:24;;;;;;;4.07;2.00;;;;;;;20.27;44.30;98320.91;12609367;23;20439;-52
2022/01/13 23:36:44;;;;;;;3.25;2.05;;;;;;;20.25;44.33;98306.88;12609551;23;20507;-52
2022/01/13 23:42:04;;;;;;;3.38;1.75;;;;;;;20.25;44.30;98315.00;12628708;23;20024;-51
2022/01/13 23:47:23;;;;;;;3.55;2.08;;;;;;;20.23;44.20;98309.06;12607059;23;20022;-52
2022/01/13 23:52:44;;;;;;;2.83;2.10;;;;;;;20.22;44.13;98307.44;12609803;23;20022;-52
2022/01/13 23:58:04;;;;;;;4.03;2.00;;;;;;;20.21;44.15;98305.03;12613578;23;20053;-54
